createdAt,value
2023-01-09T00:00:50.854Z,99556.41
2023-01-09T00:02:24.415Z,99551.22
2023-01-09T00:03:57.662Z,99544.25
2023-01-09T00:05:30.857Z,99537.31
2023-01-09T00:07:05.459Z,99541.63
2023-01-09T00:08:38.802Z,99543.25
2023-01-09T00:10:13.683Z,99541.44
2023-01-09T00:11:47.061Z,99538.84
2023-01-09T00:13:20.197Z,99537.13
2023-01-09T00:14:53.428Z,99547.47
2023-01-09T00:16:27.073Z,99543.03
2023-01-09T00:18:00.517Z,99546.53
2023-01-09T00:19:33.687Z,99542.22
2023-01-09T00:21:09.078Z,99538.84
2023-01-09T00:22:44.093Z,99542.34
2023-01-09T00:24:17.504Z,99547.59
2023-01-09T00:25:50.688Z,99545.00
2023-01-09T00:27:24.150Z,99547.63
2023-01-09T00:28:57.301Z,99540.66
2023-01-09T00:30:30.879Z,99546.81
2023-01-09T00:32:04.076Z,99542.44
2023-01-09T00:33:41.661Z,99542.50
2023-01-09T00:35:18.804Z,99540.78
2023-01-09T00:36:55.244Z,99532.13
2023-01-09T00:38:29.866Z,99539.06
2023-01-09T00:40:03.192Z,99537.28
2023-01-09T00:41:39.206Z,99536.41
2023-01-09T00:43:12.395Z,99545.94
2023-01-09T00:44:50.704Z,99539.00
2023-01-09T00:46:28.243Z,99531.09
2023-01-09T00:48:05.943Z,99538.75
2023-01-09T00:49:39.368Z,99534.34
2023-01-09T00:51:12.594Z,99531.66
2023-01-09T00:52:48.149Z,99525.59
2023-01-09T00:54:23.614Z,99527.28
2023-01-09T00:55:58.990Z,99528.09
2023-01-09T00:57:32.501Z,99531.56
2023-01-09T00:59:06.421Z,99530.69
2023-01-09T01:00:38.633Z,99530.66
2023-01-09T01:02:12.073Z,99524.59
2023-01-09T01:03:45.373Z,99519.38
2023-01-09T01:05:36.858Z,99519.28
2023-01-09T01:07:27.435Z,99531.31
2023-01-09T01:09:00.581Z,99520.00
2023-01-09T01:10:37.038Z,99513.84
2023-01-09T01:12:10.435Z,99523.38
2023-01-09T01:13:44.025Z,99514.66
2023-01-09T01:15:18.454Z,99502.50
2023-01-09T01:16:50.665Z,99513.84
2023-01-09T01:18:24.343Z,99506.88
2023-01-09T01:19:56.456Z,99507.72
2023-01-09T01:21:29.913Z,99510.28
2023-01-09T01:23:03.096Z,99505.09
2023-01-09T01:24:36.429Z,99502.47
2023-01-09T01:26:12.855Z,99501.69
2023-01-09T01:27:46.773Z,99499.91
2023-01-09T01:29:20.125Z,99499.06
2023-01-09T01:30:53.701Z,99498.19
2023-01-09T01:32:25.884Z,99499.91
2023-01-09T01:33:59.262Z,99492.97
2023-01-09T01:35:32.566Z,99487.81
2023-01-09T01:37:05.708Z,99480.91
2023-01-09T01:38:39.015Z,99480.91
2023-01-09T01:40:13.531Z,99482.56
2023-01-09T01:41:47.471Z,99475.56
2023-01-09T01:43:21.218Z,99465.03
2023-01-09T01:45:04.069Z,99463.22
2023-01-09T01:46:37.313Z,99465.81
2023-01-09T01:48:12.548Z,99471.06
2023-01-09T01:49:45.543Z,99465.03
2023-01-09T01:51:22.563Z,99465.13
2023-01-09T01:53:01.340Z,99459.09
2023-01-09T01:54:34.949Z,99449.59
2023-01-09T01:56:13.688Z,99450.31
2023-01-09T01:57:50.428Z,99447.63
2023-01-09T01:59:27.663Z,99449.34
2023-01-09T02:01:01.332Z,99433.63
2023-01-09T02:02:33.957Z,99444.19
2023-01-09T02:04:11.365Z,99446.84
2023-01-09T02:05:44.440Z,99439.06
2023-01-09T02:07:17.589Z,99426.09
2023-01-09T02:08:51.958Z,99435.66
2023-01-09T02:10:25.853Z,99427.84
2023-01-09T02:12:01.014Z,99429.53
2023-01-09T02:13:38.826Z,99428.69
2023-01-09T02:15:14.964Z,99427.88
2023-01-09T02:17:08.449Z,99426.97
2023-01-09T02:18:48.358Z,99427.03
2023-01-09T02:20:38.061Z,99428.81
2023-01-09T02:22:20.664Z,99419.34
2023-01-09T02:24:29.821Z,99425.25
2023-01-09T02:26:37.100Z,99420.91
2023-01-09T02:28:37.117Z,99407.88
2023-01-09T02:30:40.067Z,99422.50
2023-01-09T02:32:24.671Z,99407.72
2023-01-09T02:34:08.643Z,99409.41
2023-01-09T02:35:58.061Z,99402.47
2023-01-09T02:37:42.088Z,99402.50
2023-01-09T02:39:25.889Z,99400.75
2023-01-09T02:41:05.656Z,99389.44
2023-01-09T02:42:43.345Z,99402.47
2023-01-09T02:44:18.353Z,99402.44
2023-01-09T02:45:52.937Z,99400.75
2023-01-09T02:47:41.659Z,99396.41
2023-01-09T02:49:17.507Z,99391.22
2023-01-09T02:51:02.510Z,99392.03
2023-01-09T02:52:47.906Z,99392.03
2023-01-09T02:54:34.358Z,99396.38
2023-01-09T02:56:21.851Z,99404.22
2023-01-09T02:58:05.140Z,99396.53
2023-01-09T02:59:53.910Z,99394.00
2023-01-09T03:01:38.847Z,99395.78
2023-01-09T03:03:22.108Z,99392.38
2023-01-09T03:05:00.682Z,99392.38
2023-01-09T03:06:46.400Z,99390.59
2023-01-09T03:08:22.890Z,99392.19
2023-01-09T03:10:09.991Z,99399.00
2023-01-09T03:11:53.954Z,99387.81
2023-01-09T03:13:32.621Z,99387.00
2023-01-09T03:15:08.228Z,99400.00
2023-01-09T03:16:47.056Z,99391.44
2023-01-09T03:18:24.364Z,99388.94
2023-01-09T03:19:58.858Z,99397.72
2023-01-09T03:21:33.751Z,99401.25
2023-01-09T03:23:07.488Z,99402.19
2023-01-09T03:24:40.641Z,99395.22
2023-01-09T03:26:13.922Z,99390.97
2023-01-09T03:27:47.013Z,99390.13
2023-01-09T03:29:20.300Z,99396.06
2023-01-09T03:30:53.505Z,99394.22
2023-01-09T03:32:28.025Z,99395.00
2023-01-09T03:34:01.158Z,99394.97
2023-01-09T03:35:34.498Z,99400.97
2023-01-09T03:37:07.600Z,99400.09
2023-01-09T03:38:40.856Z,99392.31
2023-01-09T03:40:14.107Z,99394.06
2023-01-09T03:41:47.634Z,99397.56
2023-01-09T03:43:20.835Z,99411.31
2023-01-09T03:44:53.931Z,99400.13
2023-01-09T03:46:27.095Z,99402.75
2023-01-09T03:48:01.047Z,99401.06
2023-01-09T03:49:34.167Z,99408.03
2023-01-09T03:51:07.713Z,99414.16
2023-01-09T03:52:41.455Z,99416.81
2023-01-09T03:54:14.818Z,99401.16
2023-01-09T03:55:49.423Z,99404.66
2023-01-09T03:57:25.735Z,99408.13
2023-01-09T03:59:01.031Z,99405.38
2023-01-09T04:00:34.590Z,99414.78
2023-01-09T04:02:08.213Z,99418.25
2023-01-09T04:03:43.430Z,99416.50
2023-01-09T04:05:20.971Z,99410.41
2023-01-09T04:06:54.487Z,99414.72
2023-01-09T04:08:28.190Z,99419.91
2023-01-09T04:10:01.809Z,99426.88
2023-01-09T04:11:34.978Z,99425.09
2023-01-09T04:13:08.118Z,99425.09
2023-01-09T04:14:41.315Z,99423.50
2023-01-09T04:16:14.835Z,99422.69
2023-01-09T04:17:48.173Z,99430.59
2023-01-09T04:19:23.409Z,99439.31
2023-01-09T04:20:56.963Z,99432.50
2023-01-09T04:22:31.500Z,99437.66
2023-01-09T04:24:05.005Z,99444.56
2023-01-09T04:25:38.284Z,99439.38
2023-01-09T04:27:12.195Z,99438.53
2023-01-09T04:28:46.247Z,99439.41
2023-01-09T04:30:19.503Z,99442.91
2023-01-09T04:31:56.913Z,99437.78
2023-01-09T04:33:30.010Z,99446.47
2023-01-09T04:35:04.488Z,99443.06
2023-01-09T04:36:37.742Z,99446.59
2023-01-09T04:38:11.454Z,99447.47
2023-01-09T04:39:45.204Z,99448.28
2023-01-09T04:41:32.195Z,99450.06
2023-01-09T04:43:05.311Z,99453.59
2023-01-09T04:44:41.895Z,99443.28
2023-01-09T04:46:17.869Z,99442.47
2023-01-09T04:47:53.753Z,99438.16
2023-01-09T04:49:27.465Z,99450.31
2023-01-09T04:51:02.477Z,99446.88
2023-01-09T04:52:38.163Z,99446.84
2023-01-09T04:54:12.592Z,99455.59
2023-01-09T04:55:45.676Z,99450.44
2023-01-09T04:57:19.404Z,99454.78
2023-01-09T04:58:52.614Z,99453.88
2023-01-09T05:00:25.951Z,99459.09
2023-01-09T05:01:59.596Z,99459.09
2023-01-09T05:03:33.244Z,99460.88
2023-01-09T05:05:09.723Z,99459.16
2023-01-09T05:06:45.931Z,99458.34
2023-01-09T05:08:19.049Z,99462.66
2023-01-09T05:09:52.530Z,99468.75
2023-01-09T05:11:25.770Z,99470.50
2023-01-09T05:12:58.952Z,99463.56
2023-01-09T05:14:32.103Z,99466.16
2023-01-09T05:16:06.014Z,99456.53
2023-01-09T05:17:39.277Z,99457.38
2023-01-09T05:19:12.752Z,99462.59
2023-01-09T05:20:45.946Z,99457.34
2023-01-09T05:22:20.782Z,99466.00
2023-01-09T05:23:52.984Z,99462.59
2023-01-09T05:25:26.476Z,99466.03
2023-01-09T05:26:59.563Z,99459.97
2023-01-09T05:28:33.579Z,99454.84
2023-01-09T05:30:07.514Z,99453.97
2023-01-09T05:31:39.938Z,99460.94
2023-01-09T05:33:13.081Z,99462.63
2023-01-09T05:34:46.374Z,99459.13
2023-01-09T05:36:19.610Z,99450.44
2023-01-09T05:37:54.252Z,99457.41
2023-01-09T05:39:27.470Z,99457.44
2023-01-09T05:41:00.873Z,99460.09
2023-01-09T05:42:34.066Z,99460.94
2023-01-09T05:44:07.356Z,99460.94
2023-01-09T05:45:40.566Z,99456.59
2023-01-09T05:47:14.140Z,99459.16
2023-01-09T05:48:47.333Z,99456.56
2023-01-09T05:50:20.509Z,99456.59
2023-01-09T05:51:53.676Z,99453.13
2023-01-09T05:53:28.457Z,99453.97
2023-01-09T05:55:01.620Z,99447.97
2023-01-09T05:56:35.055Z,99451.47
2023-01-09T05:58:08.222Z,99454.94
2023-01-09T05:59:41.767Z,99440.25
2023-01-09T06:01:15.045Z,99434.22
2023-01-09T06:02:48.386Z,99440.25
2023-01-09T06:04:21.841Z,99439.38
2023-01-09T06:05:55.230Z,99442.91
2023-01-09T06:07:28.391Z,99431.75
2023-01-09T06:09:03.642Z,99438.72
2023-01-09T06:10:36.810Z,99436.16
2023-01-09T06:12:10.411Z,99437.88
2023-01-09T06:13:43.598Z,99431.78
2023-01-09T06:15:17.108Z,99420.44
2023-01-09T06:16:50.419Z,99430.81
2023-01-09T06:18:23.881Z,99427.34
2023-01-09T06:19:56.996Z,99430.78
2023-01-09T06:21:30.174Z,99435.16
2023-01-09T06:23:03.365Z,99419.44
2023-01-09T06:24:37.967Z,99422.91
2023-01-09T06:26:11.145Z,99429.88
2023-01-09T06:27:44.217Z,99429.03
2023-01-09T06:29:17.451Z,99427.34
2023-01-09T06:30:52.334Z,99428.28
2023-01-09T06:32:25.505Z,99426.47
2023-01-09T06:33:58.648Z,99429.72
2023-01-09T06:35:31.833Z,99433.22
2023-01-09T06:37:04.514Z,99427.22
2023-01-09T06:38:37.614Z,99430.63
2023-01-09T06:40:13.313Z,99431.56
2023-01-09T06:41:48.507Z,99430.66
2023-01-09T06:43:22.169Z,99435.78
2023-01-09T06:44:55.313Z,99426.25
2023-01-09T06:46:28.509Z,99424.50
2023-01-09T06:48:01.760Z,99431.44
2023-01-09T06:49:35.137Z,99422.84
2023-01-09T06:51:08.383Z,99419.38
2023-01-09T06:52:41.556Z,99425.41
2023-01-09T06:54:14.705Z,99417.66
2023-01-09T06:55:49.552Z,99421.19
2023-01-09T06:57:22.651Z,99418.63
2023-01-09T06:58:55.933Z,99416.88
2023-01-09T07:00:31.508Z,99405.66
2023-01-09T07:02:05.310Z,99410.88
2023-01-09T07:03:38.566Z,99409.13
2023-01-09T07:05:12.128Z,99397.03
2023-01-09T07:06:48.316Z,99400.41
2023-01-09T07:08:21.920Z,99401.22
2023-01-09T07:09:55.043Z,99405.53
2023-01-09T07:11:29.521Z,99410.81
2023-01-09T07:13:02.704Z,99401.28
2023-01-09T07:14:36.229Z,99403.88
2023-01-09T07:16:09.830Z,99403.91
2023-01-09T07:17:42.978Z,99403.97
2023-01-09T07:19:16.187Z,99404.00
2023-01-09T07:20:49.784Z,99396.22
2023-01-09T07:22:22.899Z,99395.31
2023-01-09T07:23:56.071Z,99393.63
2023-01-09T07:25:29.276Z,99381.44
2023-01-09T07:27:04.508Z,99387.63
2023-01-09T07:28:37.621Z,99383.31
2023-01-09T07:30:12.189Z,99383.25
2023-01-09T07:31:45.306Z,99375.47
2023-01-09T07:33:18.542Z,99371.16
2023-01-09T07:34:51.782Z,99364.22
2023-01-09T07:36:25.111Z,99365.94
2023-01-09T07:37:58.245Z,99367.66
2023-01-09T07:39:31.393Z,99367.66
2023-01-09T07:41:04.598Z,99373.78
2023-01-09T07:42:39.370Z,99371.16
2023-01-09T07:44:12.530Z,99371.19
2023-01-09T07:45:47.679Z,99375.56
2023-01-09T07:47:20.798Z,99373.81
2023-01-09T07:48:54.022Z,99363.47
2023-01-09T07:50:27.215Z,99366.09
2023-01-09T07:52:00.661Z,99348.78
2023-01-09T07:53:33.734Z,99368.81
2023-01-09T07:55:07.972Z,99368.81
2023-01-09T07:56:41.471Z,99373.16
2023-01-09T07:58:16.213Z,99366.28
2023-01-09T07:59:49.287Z,99368.03
2023-01-09T08:01:22.777Z,99362.81
2023-01-09T08:02:56.217Z,99353.31
2023-01-09T08:04:29.602Z,99352.38
2023-01-09T08:06:02.855Z,99359.34
2023-01-09T08:07:36.224Z,99360.25
2023-01-09T08:09:09.667Z,99357.66
2023-01-09T08:10:43.227Z,99355.13
2023-01-09T08:12:16.457Z,99343.91
2023-01-09T08:13:51.128Z,99345.69
2023-01-09T08:15:24.235Z,99343.97
2023-01-09T08:16:57.953Z,99343.13
2023-01-09T08:18:31.139Z,99344.91
2023-01-09T08:20:04.854Z,99351.00
2023-01-09T08:21:37.929Z,99351.81
2023-01-09T08:23:11.412Z,99344.91
2023-01-09T08:24:44.553Z,99341.50
2023-01-09T08:26:18.548Z,99342.34
2023-01-09T08:27:51.717Z,99345.81
2023-01-09T08:29:26.512Z,99341.44
2023-01-09T08:30:59.837Z,99306.72
2023-01-09T08:32:33.301Z,99323.22
2023-01-09T08:34:06.385Z,99328.44
2023-01-09T08:35:39.850Z,99330.16
2023-01-09T08:37:13.055Z,99333.63
2023-01-09T08:38:46.200Z,99332.78
2023-01-09T08:40:19.738Z,99319.78
2023-01-09T08:42:10.805Z,99324.13
2023-01-09T08:44:01.388Z,99325.91
2023-01-09T08:45:53.546Z,99325.06
2023-01-09T08:47:29.081Z,99326.81
2023-01-09T08:49:02.275Z,99320.75
2023-01-09T08:50:35.582Z,99322.53
2023-01-09T08:52:08.937Z,99323.38
2023-01-09T08:53:42.466Z,99312.09
2023-01-09T08:55:15.800Z,99323.38
2023-01-09T08:56:49.210Z,99320.78
2023-01-09T08:58:22.372Z,99322.53
2023-01-09T08:59:55.621Z,99317.28
2023-01-09T09:01:30.263Z,99316.44
2023-01-09T09:03:03.765Z,99313.84
2023-01-09T09:04:36.919Z,99313.84
2023-01-09T09:06:10.480Z,99312.13
2023-01-09T09:07:43.592Z,99318.16
2023-01-09T09:09:17.072Z,99319.03
2023-01-09T09:10:50.202Z,99316.41
2023-01-09T09:12:24.328Z,99314.63
2023-01-09T09:13:57.714Z,99314.59
2023-01-09T09:15:30.023Z,99315.44
2023-01-09T09:17:04.661Z,99318.03
2023-01-09T09:18:37.948Z,99297.13
2023-01-09T09:20:12.598Z,99305.75
2023-01-09T09:21:46.118Z,99299.63
2023-01-09T09:23:19.346Z,99297.84
2023-01-09T09:24:52.607Z,99307.31
2023-01-09T09:26:25.893Z,99298.56
2023-01-09T09:28:01.254Z,99300.97
2023-01-09T09:29:34.474Z,99296.50
2023-01-09T09:31:08.790Z,99286.09
2023-01-09T09:32:43.836Z,99280.03
2023-01-09T09:34:17.273Z,99286.06
2023-01-09T09:35:51.871Z,99285.97
2023-01-09T09:37:25.436Z,99280.78
2023-01-09T09:38:58.579Z,99275.59
2023-01-09T09:40:57.932Z,99280.72
2023-01-09T09:43:30.359Z,99273.72
2023-01-09T09:45:14.718Z,99271.13
2023-01-09T09:46:57.415Z,99271.19
2023-01-09T09:48:37.645Z,99265.09
2023-01-09T09:50:27.657Z,99250.34
2023-01-09T09:52:09.568Z,99263.34
2023-01-09T09:53:52.963Z,99255.50
2023-01-09T09:55:31.026Z,99254.69
2023-01-09T09:57:06.549Z,99254.88
2023-01-09T09:58:41.937Z,99250.53
2023-01-09T10:00:20.349Z,99249.59
2023-01-09T10:01:57.601Z,99243.50
2023-01-09T10:03:38.532Z,99243.47
2023-01-09T10:05:18.226Z,99233.94
2023-01-09T10:06:53.883Z,99245.19
2023-01-09T10:08:35.642Z,99232.03
2023-01-09T10:10:15.889Z,99231.91
2023-01-09T10:11:54.096Z,99226.53
2023-01-09T10:13:45.265Z,99226.44
2023-01-09T10:15:25.278Z,99220.25
2023-01-09T10:17:13.163Z,99222.81
2023-01-09T10:18:59.980Z,99212.25
2023-01-09T10:20:53.871Z,99213.91
2023-01-09T10:22:39.702Z,99213.72
2023-01-09T10:24:33.919Z,99215.38
2023-01-09T10:26:13.175Z,99209.16
2023-01-09T10:28:01.868Z,99197.69
2023-01-09T10:29:45.794Z,99202.81
2023-01-09T10:31:28.620Z,99206.16
2023-01-09T10:33:14.881Z,99205.94
2023-01-09T10:35:03.555Z,99208.28
2023-01-09T10:37:01.327Z,99193.25
2023-01-09T10:38:36.997Z,99191.34
2023-01-09T10:40:20.775Z,99184.25
2023-01-09T10:42:01.801Z,99183.22
2023-01-09T10:43:42.715Z,99182.25
2023-01-09T10:45:21.612Z,99168.97
2023-01-09T10:46:56.600Z,99163.50
2023-01-09T10:48:33.749Z,99172.94
2023-01-09T10:50:21.111Z,99165.75
2023-01-09T10:52:05.530Z,99153.25
2023-01-09T10:53:43.116Z,99146.84
2023-01-09T10:55:20.766Z,99144.03
2023-01-09T10:56:57.393Z,99150.72
2023-01-09T10:58:30.908Z,99141.75
2023-01-09T11:00:05.744Z,99141.53
2023-01-09T11:01:43.401Z,99143.78
2023-01-09T11:03:18.430Z,99137.44
2023-01-09T11:04:52.044Z,99144.28
2023-01-09T11:06:33.647Z,99136.16
2023-01-09T11:08:18.352Z,99133.25
2023-01-09T11:09:59.783Z,99117.28
2023-01-09T11:11:35.158Z,99119.75
2023-01-09T11:13:16.726Z,99125.72
2023-01-09T11:14:49.911Z,99115.81
2023-01-09T11:16:24.392Z,99110.41
2023-01-09T11:18:20.204Z,99110.19
2023-01-09T11:20:04.755Z,99110.00
2023-01-09T11:21:42.052Z,99100.19
2023-01-09T11:23:30.998Z,99104.34
2023-01-09T11:25:06.573Z,99100.81
2023-01-09T11:26:39.727Z,99099.72
2023-01-09T11:28:13.131Z,99096.09
2023-01-09T11:29:46.268Z,99095.97
2023-01-09T11:31:24.583Z,99097.66
2023-01-09T11:32:59.075Z,99091.34
2023-01-09T11:34:34.700Z,99086.88
2023-01-09T11:36:11.156Z,99086.69
2023-01-09T11:37:47.189Z,99088.22
2023-01-09T11:39:25.032Z,99082.78
2023-01-09T11:41:00.789Z,99088.72
2023-01-09T11:42:52.236Z,99080.63
2023-01-09T11:44:26.851Z,99074.19
2023-01-09T11:46:03.460Z,99068.66
2023-01-09T11:47:40.897Z,99063.88
2023-01-09T11:49:25.555Z,99067.03
2023-01-09T11:51:01.277Z,99056.94
2023-01-09T11:52:34.893Z,99052.31
2023-01-09T11:54:18.998Z,99030.91
2023-01-09T11:55:59.524Z,99036.72
2023-01-09T11:57:34.649Z,99025.88
2023-01-09T11:59:12.431Z,99026.44
2023-01-09T12:00:53.897Z,99026.19
2023-01-09T12:02:48.108Z,99028.53
2023-01-09T12:04:25.846Z,99029.94
2023-01-09T12:06:05.107Z,99021.72
2023-01-09T12:07:59.246Z,99012.56
2023-01-09T12:09:42.719Z,99003.59
2023-01-09T12:11:31.241Z,99000.03
2023-01-09T12:13:14.730Z,98998.09
2023-01-09T12:15:01.385Z,98990.03
2023-01-09T12:16:40.855Z,98981.78
2023-01-09T12:18:36.580Z,98978.88
2023-01-09T12:20:33.929Z,98969.69
2023-01-09T12:22:16.154Z,98977.41
2023-01-09T12:24:01.596Z,98962.25
2023-01-09T12:25:48.693Z,98975.09
2023-01-09T12:27:34.527Z,98961.72
2023-01-09T12:29:28.196Z,98955.44
2023-01-09T12:31:17.022Z,98953.44
2023-01-09T12:33:05.179Z,98954.91
2023-01-09T12:34:53.882Z,98951.22
2023-01-09T12:36:34.267Z,98943.94
2023-01-09T12:38:22.860Z,98939.28
2023-01-09T12:40:04.477Z,98936.44
2023-01-09T12:42:16.868Z,98932.75
2023-01-09T12:44:02.748Z,98928.19
2023-01-09T12:45:44.653Z,98935.13
2023-01-09T12:47:46.275Z,98930.66
2023-01-09T12:49:34.104Z,98926.66
2023-01-09T12:51:21.921Z,98934.47
2023-01-09T12:53:07.023Z,98918.53
2023-01-09T12:54:47.044Z,98924.69
2023-01-09T12:56:26.551Z,98916.63
2023-01-09T12:58:08.719Z,98924.41
2023-01-09T12:59:46.758Z,98923.63
2023-01-09T13:01:28.078Z,98926.09
2023-01-09T13:03:12.448Z,98933.00
2023-01-09T13:04:54.805Z,98927.59
2023-01-09T13:06:29.915Z,98920.44
2023-01-09T13:08:06.493Z,98922.00
2023-01-09T13:09:44.039Z,98922.81
2023-01-09T13:11:24.171Z,98916.59
2023-01-09T13:13:06.516Z,98915.66
2023-01-09T13:14:50.289Z,98911.16
2023-01-09T13:16:27.398Z,98898.94
2023-01-09T13:18:05.610Z,98910.16
2023-01-09T13:19:40.759Z,98909.34
2023-01-09T13:21:15.111Z,98918.31
2023-01-09T13:22:52.446Z,98911.28
2023-01-09T13:24:32.131Z,98907.84
2023-01-09T13:26:08.267Z,98910.44
2023-01-09T13:27:44.514Z,98909.59
2023-01-09T13:29:24.151Z,98914.88
2023-01-09T13:31:20.729Z,98904.28
2023-01-09T13:33:08.438Z,98911.44
2023-01-09T13:34:42.909Z,98915.00
2023-01-09T13:36:25.700Z,98904.56
2023-01-09T13:37:58.994Z,98907.00
2023-01-09T13:39:35.253Z,98913.13
2023-01-09T13:41:32.350Z,98903.34
2023-01-09T13:43:09.729Z,98907.59
2023-01-09T13:44:45.650Z,98901.16
2023-01-09T13:46:18.897Z,98895.00
2023-01-09T13:48:34.012Z,98892.22
2023-01-09T13:50:25.303Z,98894.72
2023-01-09T13:52:01.900Z,98901.91
2023-01-09T13:53:48.304Z,98901.91
2023-01-09T13:55:37.146Z,98900.09
2023-01-09T13:57:26.578Z,98901.91
2023-01-09T13:59:03.252Z,98902.72
2023-01-09T14:00:52.911Z,98907.31
2023-01-09T14:02:57.784Z,98905.56
2023-01-09T14:04:47.647Z,98908.31
2023-01-09T14:06:22.436Z,98907.59
2023-01-09T14:08:05.002Z,98908.59
2023-01-09T14:09:38.789Z,98905.31
2023-01-09T14:11:23.748Z,98901.13
2023-01-09T14:12:59.284Z,98903.97
2023-01-09T14:14:35.145Z,98899.81
2023-01-09T14:16:18.344Z,98893.09
2023-01-09T14:18:01.071Z,98894.22
2023-01-09T14:19:37.332Z,98895.22
2023-01-09T14:21:13.333Z,98876.81
2023-01-09T14:22:56.285Z,98885.75
2023-01-09T14:24:44.285Z,98888.59
2023-01-09T14:26:19.672Z,98880.91
2023-01-09T14:28:08.504Z,98880.19
2023-01-09T14:29:47.684Z,98876.84
2023-01-09T14:31:40.121Z,98880.66
2023-01-09T14:33:30.002Z,98875.69
2023-01-09T14:35:12.082Z,98881.16
2023-01-09T14:36:45.825Z,98883.34
2023-01-09T14:38:28.815Z,98881.09
2023-01-09T14:40:03.020Z,98880.50
2023-01-09T14:41:56.627Z,98880.81
2023-01-09T14:43:54.934Z,98874.06
2023-01-09T14:45:28.791Z,98876.97
2023-01-09T14:47:12.913Z,98872.88
2023-01-09T14:48:58.407Z,98875.06
2023-01-09T14:50:35.751Z,98884.25
2023-01-09T14:52:16.810Z,98874.19
2023-01-09T14:53:53.255Z,98863.97
2023-01-09T14:55:32.153Z,98865.00
2023-01-09T14:57:24.837Z,98867.75
2023-01-09T14:59:11.579Z,98852.31
2023-01-09T15:00:50.495Z,98854.78
2023-01-09T15:02:28.182Z,98863.72
2023-01-09T15:04:04.011Z,98858.63
2023-01-09T15:05:37.989Z,98854.50
2023-01-09T15:07:22.858Z,98865.16
2023-01-09T15:08:59.274Z,98870.66
2023-01-09T15:10:34.277Z,98867.44
2023-01-09T15:12:10.540Z,98862.41
2023-01-09T15:13:47.936Z,98861.88
2023-01-09T15:15:23.298Z,98857.69
2023-01-09T15:16:56.594Z,98854.34
2023-01-09T15:18:35.630Z,98852.72
2023-01-09T15:20:18.778Z,98851.13
2023-01-09T15:22:00.684Z,98851.38
2023-01-09T15:23:34.152Z,98850.53
2023-01-09T15:25:34.173Z,98846.41
2023-01-09T15:27:19.544Z,98845.63
2023-01-09T15:28:53.810Z,98841.34
2023-01-09T15:30:34.241Z,98835.44
2023-01-09T15:32:11.314Z,98844.84
2023-01-09T15:33:48.086Z,98843.91
2023-01-09T15:35:21.590Z,98843.19
2023-01-09T15:36:58.037Z,98848.56
2023-01-09T15:38:36.154Z,98847.03
2023-01-09T15:40:22.486Z,98845.53
2023-01-09T15:42:14.610Z,98847.53
2023-01-09T15:43:47.938Z,98851.38
2023-01-09T15:45:26.651Z,98858.78
2023-01-09T15:47:01.987Z,98850.38
2023-01-09T15:48:36.197Z,98854.22
2023-01-09T15:50:17.903Z,98848.41
2023-01-09T15:51:52.484Z,98843.41
2023-01-09T15:53:28.262Z,98837.50
2023-01-09T15:55:01.727Z,98836.78
2023-01-09T15:56:35.508Z,98841.31
2023-01-09T15:58:28.197Z,98838.22
2023-01-09T16:00:39.419Z,98828.19
2023-01-09T16:02:33.892Z,98833.72
2023-01-09T16:04:10.237Z,98830.56
2023-01-09T16:05:48.162Z,98825.56
2023-01-09T16:07:23.232Z,98822.28
2023-01-09T16:09:01.393Z,98820.66
2023-01-09T16:10:37.283Z,98821.69
2023-01-09T16:12:21.224Z,98826.25
2023-01-09T16:13:56.708Z,98814.22
2023-01-09T16:15:33.624Z,98811.03
2023-01-09T16:17:09.881Z,98816.44
2023-01-09T16:18:52.457Z,98815.94
2023-01-09T16:20:27.202Z,98817.88
2023-01-09T16:22:04.338Z,98819.00
2023-01-09T16:23:38.276Z,98814.81
2023-01-09T16:25:29.821Z,98819.28
2023-01-09T16:27:27.140Z,98828.13
2023-01-09T16:29:31.158Z,98830.91
2023-01-09T16:31:08.947Z,98821.47
2023-01-09T16:32:51.536Z,98832.00
2023-01-09T16:34:25.761Z,98827.81
2023-01-09T16:36:00.039Z,98830.69
2023-01-09T16:37:36.151Z,98825.56
2023-01-09T16:39:15.209Z,98826.59
2023-01-09T16:41:22.990Z,98825.88
2023-01-09T16:43:04.567Z,98814.72
2023-01-09T16:44:38.179Z,98814.00
2023-01-09T16:46:12.253Z,98809.69
2023-01-09T16:47:47.300Z,98815.81
2023-01-09T16:49:23.735Z,98819.28
2023-01-09T16:50:57.692Z,98814.22
2023-01-09T16:52:30.923Z,98819.50
2023-01-09T16:54:05.800Z,98808.22
2023-01-09T16:55:39.627Z,98816.16
2023-01-09T16:57:20.314Z,98822.22
2023-01-09T16:58:54.827Z,98817.03
2023-01-09T17:00:28.701Z,98817.84
2023-01-09T17:02:01.913Z,98816.97
2023-01-09T17:03:35.396Z,98810.03
2023-01-09T17:05:10.337Z,98812.63
2023-01-09T17:06:46.614Z,98807.38
2023-01-09T17:08:26.224Z,98809.09
2023-01-09T17:10:01.252Z,98805.59
2023-01-09T17:11:39.444Z,98807.38
2023-01-09T17:13:12.734Z,98809.25
2023-01-09T17:14:45.835Z,98825.03
2023-01-09T17:16:19.695Z,98807.53
2023-01-09T17:17:56.251Z,98785.81
2023-01-09T17:19:31.896Z,98788.50
2023-01-09T17:21:08.333Z,98789.38
2023-01-09T17:22:41.450Z,98788.66
2023-01-09T17:24:34.746Z,98778.16
2023-01-09T17:26:34.639Z,98784.25
2023-01-09T17:28:25.193Z,98781.72
2023-01-09T17:29:59.447Z,98776.75
2023-01-09T17:31:33.957Z,98783.06
2023-01-09T17:33:07.599Z,98771.84
2023-01-09T17:34:40.893Z,98764.91
2023-01-09T17:36:22.577Z,98770.13
2023-01-09T17:37:55.911Z,98756.19
2023-01-09T17:39:29.207Z,98764.84
2023-01-09T17:41:05.440Z,98765.63
2023-01-09T17:42:40.562Z,98766.50
2023-01-09T17:44:14.552Z,98763.03
2023-01-09T17:45:48.113Z,98751.03
2023-01-09T17:47:21.363Z,98745.88
2023-01-09T17:48:54.897Z,98733.66
2023-01-09T17:50:33.030Z,98731.88
2023-01-09T17:52:07.057Z,98731.84
2023-01-09T17:53:42.131Z,98739.56
2023-01-09T17:55:20.244Z,98738.69
2023-01-09T17:56:54.558Z,98730.00
2023-01-09T17:58:31.131Z,98735.25
2023-01-09T18:00:06.856Z,98744.03
2023-01-09T18:01:41.372Z,98745.88
2023-01-09T18:03:14.903Z,98728.53
2023-01-09T18:04:48.563Z,98736.31
2023-01-09T18:06:23.252Z,98731.22
2023-01-09T18:07:57.043Z,98740.81
2023-01-09T18:09:30.445Z,98743.56
2023-01-09T18:11:04.726Z,98744.78
2023-01-09T18:12:38.425Z,98748.53
2023-01-09T18:14:14.088Z,98750.34
2023-01-09T18:15:48.333Z,98735.63
2023-01-09T18:17:21.694Z,98738.28
2023-01-09T18:18:56.194Z,98740.31
2023-01-09T18:20:29.775Z,98744.78
2023-01-09T18:22:04.038Z,98735.38
2023-01-09T18:23:38.064Z,98730.19
2023-01-09T18:25:11.652Z,98728.47
2023-01-09T18:26:45.029Z,98728.47
2023-01-09T18:28:18.736Z,98717.16
2023-01-09T18:29:53.646Z,98720.63
2023-01-09T18:31:28.363Z,98719.78
2023-01-09T18:33:02.125Z,98700.78
2023-01-09T18:34:35.566Z,98700.66
2023-01-09T18:36:11.035Z,98706.72
2023-01-09T18:37:44.318Z,98714.66
2023-01-09T18:39:18.011Z,98722.53
2023-01-09T18:40:51.220Z,98718.22
2023-01-09T18:42:24.455Z,98717.31
2023-01-09T18:43:59.378Z,98710.34
2023-01-09T18:45:34.627Z,98709.44
2023-01-09T18:47:07.831Z,98707.72
2023-01-09T18:48:41.100Z,98694.66
2023-01-09T18:50:14.631Z,98693.75
2023-01-09T18:51:48.354Z,98693.75
2023-01-09T18:53:21.631Z,98692.94
2023-01-09T18:54:54.992Z,98694.59
2023-01-09T18:56:28.428Z,98690.19
2023-01-09T18:58:02.818Z,98695.41
2023-01-09T18:59:36.064Z,98691.06
2023-01-09T19:01:10.685Z,98688.47
2023-01-09T19:02:43.907Z,98682.53
2023-01-09T19:04:17.323Z,98683.44
2023-01-09T19:05:50.519Z,98687.88
2023-01-09T19:07:23.735Z,98696.56